CheckWX is a tool to help pilots better visualize weather data.  It is not intended as a substitute for an official pre-flight weather briefing.

09:00:21 UTC

DNAA METAR
Nnamdi Azikiwe International Airport
Abuja, Nigeria
Current

60 mins ago

DNAA 230800Z 22012KT 9999 BKN010 29/22 Q1013 NOSIG
Observed
Apr-23 @ 08:00 UTC
Wind
  • 220° at 12 KTS
Visibility
10,000+ meters
Flight Rules
MVFR
Cloud Levels
  • Broken at 1,000' AGL
Temperature
29°C / 84°F
Dewpoint
22°C / 72°F
Heat Index
32°C / 89°F
Humidity
66%
Altimeter
29.91" Hg
Pressure
1012.92 hPa
Previous

2 hours ago

DNAA 230700Z 24008KT 9999 BKN009 27/22 Q1012 NOSIG
Observed
Apr-23 @ 07:00 UTC
Wind
  • 240° at 8 KTS
Visibility
10,000+ meters
Flight Rules
IFR
Cloud Levels
  • Broken at 900' AGL
Temperature
27°C / 81°F
Dewpoint
22°C / 72°F
Heat Index
29°C / 85°F
Humidity
74%
Altimeter
29.88" Hg
Pressure
1011.92 hPa
Previous

4 hours ago

DNAA 230500Z 13005KT 9999 FEW009 27/20 Q1010 NOSIG
Observed
Apr-23 @ 05:00 UTC
Wind
  • 130° at 5 KTS
Visibility
10,000+ meters
Flight Rules
VFR
Cloud Levels
  • Few at 900' AGL
Temperature
27°C / 81°F
Dewpoint
20°C / 68°F
Heat Index
29°C / 84°F
Humidity
66%
Altimeter
29.82" Hg
Pressure
1009.92 hPa